Weather at Snowy Range Airfield

Public forecast

Using degrees Celsius for public forecast. Weather courtesy of forecast.io.

Closest aviation weather report (METAR) to Snowy Range Airfield

Closest report is Wangaratta Airport, 60.2 nm (111.5 km) NNW. Retrieved 2021/10/19 19:00 UTC (58 minutes ago):

YWGT 191900Z AUTO 01002KT 9999 // NCD 05/04 Q1019

Closest aviation forecast (TAF) to Snowy Range Airfield

Closest forecast is Wangaratta Airport, 60.2 nm (111.5 km) NNW. Retrieved 2021/10/19 19:03 UTC (55 minutes ago):

TAF YWGT 191736Z 1919/2008 18005KT CAVOK FM200000 02006KT CAVOK